THY2014 LTFM-LTAU
Flight info
| Callsign | THY2014 |
|---|---|
| Flight time | 0h 57m |
| Altitude | 37000 |
| Route | VICEN UT57 VEVUD UT341 BAG UL614 GOBIT UG8 MARTI UW76 SARIZ |
| Aircraft | A321/M-SDE3FGHIRWY/LB1 |
Departure
| Time | 2026-05-07 10:30 |
|---|---|
| Airport | İstanbul Airport (LTFM) |
Arrival
| Time | 2026-05-07 11:28 |
|---|---|
| Airport | Kayseri Erkilet International Airport (LTAU) |
| Time | Latitude | Longitude | Altitude | Speed | Heading |
|---|---|---|---|---|---|
| 2026-05-07 09:59 | 41.26734 | 28.73758 | 333 ft | 0 kts | 269° |
| 2026-05-07 10:14 | 41.26734 | 28.73776 | 331 ft | 4 kts | 266° |
| 2026-05-07 10:14 | 41.26738 | 28.73811 | 330 ft | 4 kts | 257° |
| 2026-05-07 10:14 | 41.26746 | 28.73845 | 331 ft | 4 kts | 241° |
| 2026-05-07 10:14 | 41.26761 | 28.73871 | 330 ft | 4 kts | 201° |
| 2026-05-07 10:15 | 41.26771 | 28.73874 | 331 ft | 0 kts | 179° |
| 2026-05-07 10:21 | 41.26770 | 28.73874 | 331 ft | 1 kts | 179° |
| 2026-05-07 10:21 | 41.26753 | 28.73875 | 331 ft | 3 kts | 179° |
| 2026-05-07 10:21 | 41.26720 | 28.73875 | 332 ft | 6 kts | 179° |
| 2026-05-07 10:22 | 41.26675 | 28.73876 | 332 ft | 7 kts | 179° |
| 2026-05-07 10:22 | 41.26619 | 28.73878 | 333 ft | 9 kts | 179° |
| 2026-05-07 10:22 | 41.26566 | 28.73895 | 329 ft | 7 kts | 131° |
| 2026-05-07 10:22 | 41.26562 | 28.73944 | 332 ft | 6 kts | 89° |
| 2026-05-07 10:23 | 41.26568 | 28.74003 | 333 ft | 7 kts | 64° |
| 2026-05-07 10:23 | 41.26613 | 28.74024 | 330 ft | 8 kts | 0° |
| 2026-05-07 10:23 | 41.26677 | 28.74021 | 334 ft | 10 kts | 358° |
| 2026-05-07 10:23 | 41.26754 | 28.74019 | 333 ft | 11 kts | 359° |
| 2026-05-07 10:24 | 41.26841 | 28.74017 | 334 ft | 13 kts | 359° |
| 2026-05-07 10:24 | 41.26926 | 28.74015 | 334 ft | 11 kts | 359° |
| 2026-05-07 10:24 | 41.26990 | 28.74014 | 332 ft | 9 kts | 359° |
| 2026-05-07 10:24 | 41.27042 | 28.73984 | 334 ft | 9 kts | 294° |
| 2026-05-07 10:25 | 41.27052 | 28.73900 | 334 ft | 9 kts | 269° |
| 2026-05-07 10:25 | 41.27051 | 28.73807 | 334 ft | 11 kts | 269° |
| 2026-05-07 10:25 | 41.27050 | 28.73733 | 334 ft | 6 kts | 269° |
| 2026-05-07 10:25 | 41.27049 | 28.73671 | 334 ft | 7 kts | 269° |
| 2026-05-07 10:26 | 41.27048 | 28.73596 | 332 ft | 9 kts | 269° |
| 2026-05-07 10:26 | 41.27046 | 28.73509 | 334 ft | 10 kts | 269° |
| 2026-05-07 10:26 | 41.27045 | 28.73411 | 331 ft | 11 kts | 269° |
| 2026-05-07 10:26 | 41.27043 | 28.73301 | 334 ft | 12 kts | 269° |
| 2026-05-07 10:27 | 41.27041 | 28.73182 | 334 ft | 12 kts | 269° |
| 2026-05-07 10:27 | 41.27039 | 28.73074 | 334 ft | 9 kts | 269° |
| 2026-05-07 10:27 | 41.27016 | 28.72995 | 329 ft | 10 kts | 216° |
| 2026-05-07 10:27 | 41.26948 | 28.72987 | 333 ft | 11 kts | 179° |
| 2026-05-07 10:28 | 41.26870 | 28.72989 | 333 ft | 12 kts | 179° |
| 2026-05-07 10:28 | 41.26790 | 28.72991 | 332 ft | 11 kts | 179° |
| 2026-05-07 10:28 | 41.26729 | 28.72975 | 333 ft | 9 kts | 229° |
| 2026-05-07 10:28 | 41.26715 | 28.72887 | 334 ft | 13 kts | 265° |
| 2026-05-07 10:29 | 41.26713 | 28.72741 | 332 ft | 17 kts | 269° |
| 2026-05-07 10:29 | 41.26710 | 28.72610 | 332 ft | 5 kts | 267° |
| 2026-05-07 10:29 | 41.26724 | 28.72536 | 332 ft | 12 kts | 306° |
| 2026-05-07 10:30 | 41.27347 | 28.72499 | 334 ft | 108 kts | 359° |
| 2026-05-07 10:30 | 41.28294 | 28.72478 | 337 ft | 163 kts | 360° |
| 2026-05-07 10:30 | 41.29463 | 28.72434 | 890 ft | 169 kts | 358° |
| 2026-05-07 10:30 | 41.30677 | 28.72370 | 1502 ft | 179 kts | 356° |
| 2026-05-07 10:31 | 41.31942 | 28.72337 | 2020 ft | 190 kts | 359° |
| 2026-05-07 10:31 | 41.33340 | 28.72403 | 2371 ft | 212 kts | 6° |
| 2026-05-07 10:31 | 41.34740 | 28.73256 | 2520 ft | 237 kts | 41° |
| 2026-05-07 10:31 | 41.35675 | 28.75156 | 2757 ft | 260 kts | 73° |
| 2026-05-07 10:32 | 41.35829 | 28.77594 | 3326 ft | 270 kts | 94° |
| 2026-05-07 10:32 | 41.35669 | 28.80117 | 4021 ft | 276 kts | 96° |
| 2026-05-07 10:32 | 41.35434 | 28.82669 | 4782 ft | 280 kts | 102° |
| 2026-05-07 10:32 | 41.34715 | 28.85095 | 5479 ft | 284 kts | 117° |
| 2026-05-07 10:33 | 41.33816 | 28.87420 | 6182 ft | 289 kts | 117° |
| 2026-05-07 10:33 | 41.32877 | 28.89808 | 6847 ft | 294 kts | 117° |
| 2026-05-07 10:33 | 41.31921 | 28.92227 | 7542 ft | 297 kts | 117° |
| 2026-05-07 10:33 | 41.30956 | 28.94662 | 8262 ft | 299 kts | 117° |
| 2026-05-07 10:34 | 41.29987 | 28.97116 | 8998 ft | 301 kts | 116° |
| 2026-05-07 10:34 | 41.29013 | 28.99590 | 9714 ft | 303 kts | 116° |
| 2026-05-07 10:34 | 41.28025 | 29.02101 | 10229 ft | 314 kts | 116° |
| 2026-05-07 10:34 | 41.26978 | 29.04769 | 10363 ft | 336 kts | 116° |
| 2026-05-07 10:35 | 41.25865 | 29.07604 | 10542 ft | 355 kts | 116° |
| 2026-05-07 10:35 | 41.24709 | 29.10539 | 11034 ft | 361 kts | 116° |
| 2026-05-07 10:35 | 41.23535 | 29.13509 | 11636 ft | 364 kts | 116° |
| 2026-05-07 10:35 | 41.22352 | 29.16496 | 12257 ft | 367 kts | 116° |
| 2026-05-07 10:36 | 41.21160 | 29.19502 | 12893 ft | 369 kts | 116° |
| 2026-05-07 10:36 | 41.19957 | 29.22526 | 13521 ft | 372 kts | 116° |
| 2026-05-07 10:36 | 41.18746 | 29.25571 | 14124 ft | 374 kts | 116° |
| 2026-05-07 10:36 | 41.17528 | 29.28637 | 14663 ft | 377 kts | 116° |
| 2026-05-07 10:37 | 41.16297 | 29.31737 | 15182 ft | 381 kts | 116° |
| 2026-05-07 10:37 | 41.15055 | 29.34868 | 15664 ft | 386 kts | 115° |
| 2026-05-07 10:37 | 41.13797 | 29.38037 | 16165 ft | 390 kts | 115° |
| 2026-05-07 10:37 | 41.12523 | 29.41231 | 16656 ft | 394 kts | 115° |
| 2026-05-07 10:38 | 41.11231 | 29.44458 | 17144 ft | 398 kts | 115° |
| 2026-05-07 10:38 | 41.09928 | 29.47714 | 17629 ft | 402 kts | 115° |
| 2026-05-07 10:38 | 41.08615 | 29.51005 | 18099 ft | 406 kts | 115° |
| 2026-05-07 10:38 | 41.07288 | 29.54326 | 18562 ft | 409 kts | 115° |
| 2026-05-07 10:39 | 41.05950 | 29.57670 | 18978 ft | 412 kts | 115° |
| 2026-05-07 10:39 | 41.04599 | 29.61040 | 19418 ft | 415 kts | 115° |
| 2026-05-07 10:39 | 41.03236 | 29.64427 | 19830 ft | 418 kts | 115° |
| 2026-05-07 10:39 | 41.01861 | 29.67840 | 20238 ft | 422 kts | 115° |
| 2026-05-07 10:40 | 41.00476 | 29.71277 | 20638 ft | 425 kts | 115° |
| 2026-05-07 10:40 | 40.99095 | 29.74695 | 21021 ft | 428 kts | 115° |
| 2026-05-07 10:40 | 40.97666 | 29.78227 | 21435 ft | 431 kts | 115° |
| 2026-05-07 10:40 | 40.96249 | 29.81735 | 21813 ft | 434 kts | 115° |
| 2026-05-07 10:41 | 40.94820 | 29.85265 | 22217 ft | 436 kts | 115° |
| 2026-05-07 10:41 | 40.93383 | 29.88813 | 22625 ft | 439 kts | 115° |
| 2026-05-07 10:41 | 40.91959 | 29.92331 | 23008 ft | 441 kts | 115° |
| 2026-05-07 10:41 | 40.90504 | 29.95922 | 23399 ft | 444 kts | 115° |
| 2026-05-07 10:42 | 40.89041 | 29.99533 | 23757 ft | 447 kts | 115° |
| 2026-05-07 10:42 | 40.87567 | 30.03169 | 24066 ft | 450 kts | 115° |
| 2026-05-07 10:42 | 40.86081 | 30.06825 | 24386 ft | 453 kts | 115° |
| 2026-05-07 10:42 | 40.84579 | 30.10501 | 24707 ft | 456 kts | 115° |
| 2026-05-07 10:43 | 40.83065 | 30.14192 | 25054 ft | 458 kts | 115° |
| 2026-05-07 10:43 | 40.81542 | 30.17893 | 25376 ft | 460 kts | 115° |
| 2026-05-07 10:43 | 40.80009 | 30.21618 | 25682 ft | 463 kts | 115° |
| 2026-05-07 10:43 | 40.78469 | 30.25360 | 25976 ft | 466 kts | 115° |
| 2026-05-07 10:44 | 40.76924 | 30.29126 | 26272 ft | 468 kts | 115° |
| 2026-05-07 10:44 | 40.75371 | 30.32913 | 26578 ft | 471 kts | 115° |
| 2026-05-07 10:44 | 40.73808 | 30.36722 | 26868 ft | 473 kts | 115° |
| 2026-05-07 10:44 | 40.72235 | 30.40544 | 27171 ft | 476 kts | 115° |
| 2026-05-07 10:45 | 40.70645 | 30.44401 | 27415 ft | 480 kts | 115° |
| 2026-05-07 10:45 | 40.69048 | 30.48265 | 27689 ft | 483 kts | 115° |
| 2026-05-07 10:45 | 40.67437 | 30.52162 | 27979 ft | 485 kts | 115° |
| 2026-05-07 10:45 | 40.65818 | 30.56076 | 28258 ft | 488 kts | 115° |
| 2026-05-07 10:46 | 40.64190 | 30.60004 | 28525 ft | 490 kts | 115° |
| 2026-05-07 10:46 | 40.62545 | 30.63960 | 28803 ft | 493 kts | 116° |
| 2026-05-07 10:46 | 40.60892 | 30.67925 | 29075 ft | 496 kts | 116° |
| 2026-05-07 10:46 | 40.59225 | 30.71915 | 29315 ft | 498 kts | 116° |
| 2026-05-07 10:47 | 40.57554 | 30.75915 | 29575 ft | 500 kts | 116° |
| 2026-05-07 10:47 | 40.55897 | 30.79885 | 29820 ft | 503 kts | 116° |
| 2026-05-07 10:47 | 40.54210 | 30.83923 | 30065 ft | 505 kts | 116° |
| 2026-05-07 10:47 | 40.52516 | 30.87974 | 30288 ft | 507 kts | 116° |
| 2026-05-07 10:48 | 40.50813 | 30.92042 | 30490 ft | 508 kts | 116° |
| 2026-05-07 10:48 | 40.49107 | 30.96110 | 30765 ft | 508 kts | 116° |
| 2026-05-07 10:48 | 40.47401 | 31.00167 | 31030 ft | 507 kts | 116° |
| 2026-05-07 10:48 | 40.45694 | 31.04217 | 31140 ft | 504 kts | 116° |
| 2026-05-07 10:49 | 40.44015 | 31.08185 | 31166 ft | 493 kts | 115° |
| 2026-05-07 10:49 | 40.42358 | 31.12094 | 31162 ft | 489 kts | 116° |
| 2026-05-07 10:49 | 40.39106 | 31.19916 | 31170 ft | 485 kts | 111° |
| 2026-05-07 10:50 | 40.37109 | 31.28248 | 31166 ft | 475 kts | 96° |
| 2026-05-07 10:50 | 40.35754 | 31.36732 | 31172 ft | 476 kts | 97° |
| 2026-05-07 10:51 | 40.34370 | 31.45156 | 31176 ft | 476 kts | 97° |
| 2026-05-07 10:51 | 40.32966 | 31.53634 | 31195 ft | 476 kts | 97° |
| 2026-05-07 10:52 | 40.31570 | 31.62097 | 31194 ft | 475 kts | 97° |
| 2026-05-07 10:52 | 40.30177 | 31.70555 | 31190 ft | 474 kts | 97° |
| 2026-05-07 10:53 | 40.28779 | 31.78999 | 31196 ft | 474 kts | 97° |
| 2026-05-07 10:53 | 40.27370 | 31.87440 | 31220 ft | 474 kts | 97° |
| 2026-05-07 10:54 | 40.25875 | 31.95842 | 31220 ft | 475 kts | 100° |
| 2026-05-07 10:54 | 40.24072 | 32.04175 | 31216 ft | 476 kts | 102° |
| 2026-05-07 10:55 | 40.22166 | 32.12462 | 31235 ft | 475 kts | 102° |
| 2026-05-07 10:55 | 40.20315 | 32.20741 | 31230 ft | 473 kts | 102° |
| 2026-05-07 10:56 | 40.18514 | 32.29016 | 31225 ft | 472 kts | 101° |
| 2026-05-07 10:56 | 40.16726 | 32.37217 | 31245 ft | 472 kts | 102° |
| 2026-05-07 10:57 | 40.14915 | 32.45453 | 31230 ft | 471 kts | 102° |
| 2026-05-07 10:57 | 40.13100 | 32.53661 | 31239 ft | 470 kts | 102° |
| 2026-05-07 10:58 | 40.11288 | 32.61854 | 31231 ft | 469 kts | 102° |
| 2026-05-07 10:58 | 40.09464 | 32.70023 | 31246 ft | 468 kts | 103° |
| 2026-05-07 10:59 | 40.07631 | 32.78175 | 31233 ft | 467 kts | 103° |
| 2026-05-07 10:59 | 40.05642 | 32.86238 | 31231 ft | 467 kts | 107° |
| 2026-05-07 11:00 | 40.03275 | 32.94145 | 31242 ft | 468 kts | 109° |
| 2026-05-07 11:00 | 40.00827 | 33.02010 | 31233 ft | 468 kts | 109° |
| 2026-05-07 11:01 | 39.98455 | 33.09901 | 31219 ft | 467 kts | 108° |
| 2026-05-07 11:01 | 39.96139 | 33.17808 | 31217 ft | 467 kts | 108° |
| 2026-05-07 11:02 | 39.93818 | 33.25701 | 31221 ft | 467 kts | 108° |
| 2026-05-07 11:02 | 39.91468 | 33.33577 | 31211 ft | 467 kts | 108° |
| 2026-05-07 11:03 | 39.89122 | 33.41409 | 31203 ft | 467 kts | 108° |
| 2026-05-07 11:03 | 39.86748 | 33.49335 | 31201 ft | 467 kts | 108° |
| 2026-05-07 11:04 | 39.84397 | 33.57147 | 31197 ft | 467 kts | 108° |
| 2026-05-07 11:04 | 39.82390 | 33.65144 | 31201 ft | 463 kts | 101° |
| 2026-05-07 11:05 | 39.80760 | 33.73248 | 31192 ft | 463 kts | 101° |
| 2026-05-07 11:05 | 39.79117 | 33.81347 | 31167 ft | 464 kts | 101° |
| 2026-05-07 11:06 | 39.77402 | 33.89441 | 31169 ft | 467 kts | 105° |
| 2026-05-07 11:06 | 39.75540 | 33.96031 | 31176 ft | 468 kts | 107° |
| 2026-05-07 11:07 | 39.73294 | 34.03967 | 31189 ft | 468 kts | 106° |
| 2026-05-07 11:07 | 39.71043 | 34.11911 | 31114 ft | 469 kts | 106° |
| 2026-05-07 11:08 | 39.69918 | 34.15871 | 30866 ft | 466 kts | 107° |
| 2026-05-07 11:08 | 39.68794 | 34.19806 | 30622 ft | 464 kts | 107° |
| 2026-05-07 11:08 | 39.67673 | 34.23720 | 30380 ft | 462 kts | 107° |
| 2026-05-07 11:08 | 39.66556 | 34.27614 | 30117 ft | 459 kts | 107° |
| 2026-05-07 11:09 | 39.65446 | 34.31488 | 29853 ft | 457 kts | 106° |
| 2026-05-07 11:09 | 39.64340 | 34.35351 | 29565 ft | 456 kts | 106° |
| 2026-05-07 11:09 | 39.63239 | 34.39194 | 29291 ft | 454 kts | 106° |
| 2026-05-07 11:09 | 39.62141 | 34.43020 | 29006 ft | 451 kts | 106° |
| 2026-05-07 11:10 | 39.61048 | 34.46823 | 28731 ft | 449 kts | 106° |
| 2026-05-07 11:10 | 39.59955 | 34.50608 | 28459 ft | 447 kts | 107° |
| 2026-05-07 11:10 | 39.58867 | 34.54361 | 28186 ft | 444 kts | 107° |
| 2026-05-07 11:10 | 39.57782 | 34.58095 | 27882 ft | 439 kts | 107° |
| 2026-05-07 11:11 | 39.56709 | 34.61779 | 27356 ft | 435 kts | 106° |
| 2026-05-07 11:11 | 39.55650 | 34.65427 | 26841 ft | 431 kts | 106° |
| 2026-05-07 11:11 | 39.54604 | 34.69046 | 26350 ft | 427 kts | 107° |
| 2026-05-07 11:11 | 39.53563 | 34.72628 | 25853 ft | 423 kts | 107° |
| 2026-05-07 11:12 | 39.52529 | 34.76169 | 25374 ft | 418 kts | 107° |
| 2026-05-07 11:12 | 39.51508 | 34.79669 | 24907 ft | 414 kts | 107° |
| 2026-05-07 11:12 | 39.50498 | 34.83130 | 24450 ft | 409 kts | 107° |
| 2026-05-07 11:12 | 39.49495 | 34.86563 | 24012 ft | 405 kts | 107° |
| 2026-05-07 11:13 | 39.48500 | 34.89955 | 23502 ft | 401 kts | 108° |
| 2026-05-07 11:13 | 39.47514 | 34.93308 | 23063 ft | 396 kts | 108° |
| 2026-05-07 11:13 | 39.46543 | 34.96610 | 22630 ft | 389 kts | 108° |
| 2026-05-07 11:13 | 39.45590 | 34.99856 | 22190 ft | 383 kts | 108° |
| 2026-05-07 11:14 | 39.44661 | 35.03018 | 21756 ft | 378 kts | 108° |
| 2026-05-07 11:14 | 39.43732 | 35.06175 | 21320 ft | 373 kts | 108° |
| 2026-05-07 11:14 | 39.42813 | 35.09287 | 20872 ft | 368 kts | 110° |
| 2026-05-07 11:14 | 39.41555 | 35.12143 | 20447 ft | 367 kts | 128° |
| 2026-05-07 11:15 | 39.39652 | 35.14309 | 19997 ft | 366 kts | 148° |
| 2026-05-07 11:15 | 39.37309 | 35.15522 | 19549 ft | 364 kts | 168° |
| 2026-05-07 11:15 | 39.34795 | 35.15666 | 19076 ft | 362 kts | 187° |
| 2026-05-07 11:15 | 39.32381 | 35.14829 | 18616 ft | 359 kts | 199° |
| 2026-05-07 11:16 | 39.30020 | 35.13780 | 18100 ft | 357 kts | 199° |
| 2026-05-07 11:16 | 39.27683 | 35.12747 | 17637 ft | 353 kts | 199° |
| 2026-05-07 11:16 | 39.25372 | 35.11731 | 17170 ft | 349 kts | 199° |
| 2026-05-07 11:16 | 39.23084 | 35.10725 | 16714 ft | 346 kts | 199° |
| 2026-05-07 11:17 | 39.20819 | 35.09728 | 16258 ft | 342 kts | 199° |
| 2026-05-07 11:17 | 39.18577 | 35.08743 | 15808 ft | 339 kts | 199° |
| 2026-05-07 11:17 | 39.16353 | 35.07766 | 15361 ft | 336 kts | 199° |
| 2026-05-07 11:17 | 39.14128 | 35.06866 | 14909 ft | 334 kts | 193° |
| 2026-05-07 11:18 | 39.11840 | 35.06505 | 14473 ft | 331 kts | 180° |
| 2026-05-07 11:18 | 39.09554 | 35.06765 | 14039 ft | 328 kts | 168° |
| 2026-05-07 11:18 | 39.07344 | 35.07460 | 13578 ft | 326 kts | 165° |
| 2026-05-07 11:18 | 39.05157 | 35.08160 | 13150 ft | 322 kts | 166° |
| 2026-05-07 11:19 | 39.03020 | 35.08835 | 12731 ft | 320 kts | 166° |
| 2026-05-07 11:19 | 39.00867 | 35.09511 | 12316 ft | 317 kts | 166° |
| 2026-05-07 11:19 | 38.98738 | 35.10182 | 11907 ft | 314 kts | 166° |
| 2026-05-07 11:19 | 38.96599 | 35.10858 | 11491 ft | 311 kts | 166° |
| 2026-05-07 11:20 | 38.94506 | 35.11520 | 11083 ft | 309 kts | 166° |
| 2026-05-07 11:20 | 38.92431 | 35.12177 | 10679 ft | 306 kts | 166° |
| 2026-05-07 11:20 | 38.90382 | 35.12825 | 10420 ft | 298 kts | 166° |
| 2026-05-07 11:20 | 38.88423 | 35.13445 | 10280 ft | 291 kts | 166° |
| 2026-05-07 11:21 | 38.86447 | 35.14071 | 10183 ft | 293 kts | 166° |
| 2026-05-07 11:21 | 38.84469 | 35.14697 | 9818 ft | 293 kts | 166° |
| 2026-05-07 11:21 | 38.82474 | 35.15328 | 9284 ft | 295 kts | 166° |
| 2026-05-07 11:21 | 38.80491 | 35.15954 | 8902 ft | 292 kts | 166° |
| 2026-05-07 11:22 | 38.78536 | 35.16570 | 8223 ft | 288 kts | 166° |
| 2026-05-07 11:22 | 38.76626 | 35.17170 | 7776 ft | 273 kts | 166° |
| 2026-05-07 11:22 | 38.74855 | 35.17727 | 7618 ft | 252 kts | 166° |
| 2026-05-07 11:22 | 38.73222 | 35.18449 | 7512 ft | 246 kts | 146° |
| 2026-05-07 11:23 | 38.72111 | 35.20008 | 7401 ft | 234 kts | 115° |
| 2026-05-07 11:23 | 38.71805 | 35.21991 | 7201 ft | 226 kts | 84° |
| 2026-05-07 11:23 | 38.72138 | 35.23942 | 7068 ft | 224 kts | 75° |
| 2026-05-07 11:23 | 38.72516 | 35.25872 | 7018 ft | 222 kts | 74° |
| 2026-05-07 11:24 | 38.72883 | 35.27805 | 6830 ft | 223 kts | 75° |
| 2026-05-07 11:24 | 38.73224 | 35.29714 | 6483 ft | 215 kts | 76° |
| 2026-05-07 11:24 | 38.73547 | 35.31513 | 6128 ft | 202 kts | 74° |
| 2026-05-07 11:24 | 38.73889 | 35.33195 | 5855 ft | 191 kts | 72° |
| 2026-05-07 11:25 | 38.74236 | 35.34780 | 5529 ft | 178 kts | 74° |
| 2026-05-07 11:25 | 38.74514 | 35.36238 | 5276 ft | 165 kts | 75° |
| 2026-05-07 11:25 | 38.74791 | 35.37626 | 5056 ft | 158 kts | 71° |
| 2026-05-07 11:25 | 38.75099 | 35.38970 | 4850 ft | 156 kts | 70° |
| 2026-05-07 11:26 | 38.75404 | 35.40296 | 4700 ft | 155 kts | 74° |
| 2026-05-07 11:26 | 38.75652 | 35.41639 | 4466 ft | 154 kts | 76° |
| 2026-05-07 11:26 | 38.75855 | 35.42987 | 4244 ft | 154 kts | 79° |
| 2026-05-07 11:26 | 38.76057 | 35.44330 | 4005 ft | 153 kts | 76° |
| 2026-05-07 11:27 | 38.76303 | 35.45657 | 3824 ft | 153 kts | 73° |
| 2026-05-07 11:27 | 38.76561 | 35.46979 | 3657 ft | 153 kts | 73° |
| 2026-05-07 11:27 | 38.76807 | 35.48304 | 3505 ft | 152 kts | 74° |
| 2026-05-07 11:27 | 38.77053 | 35.49515 | 3468 ft | 113 kts | 74° |
| 2026-05-07 11:28 | 38.77155 | 35.50136 | 3463 ft | 26 kts | 78° |
| 2026-05-07 11:28 | 38.77198 | 35.50346 | 3463 ft | 25 kts | 76° |
| 2026-05-07 11:28 | 38.77238 | 35.50537 | 3465 ft | 16 kts | 67° |
| 2026-05-07 11:28 | 38.77310 | 35.50548 | 3467 ft | 11 kts | 346° |
| 2026-05-07 11:29 | 38.77360 | 35.50496 | 3467 ft | 10 kts | 276° |
| 2026-05-07 11:29 | 38.77347 | 35.50396 | 3464 ft | 13 kts | 252° |
| 2026-05-07 11:29 | 38.77317 | 35.50263 | 3462 ft | 18 kts | 257° |
| 2026-05-07 11:29 | 38.77288 | 35.50103 | 3462 ft | 19 kts | 257° |
| 2026-05-07 11:30 | 38.77255 | 35.49931 | 3461 ft | 21 kts | 256° |
| 2026-05-07 11:30 | 38.77222 | 35.49755 | 3465 ft | 20 kts | 256° |
| 2026-05-07 11:30 | 38.77190 | 35.49585 | 3466 ft | 20 kts | 256° |
| 2026-05-07 11:30 | 38.77157 | 35.49406 | 3468 ft | 21 kts | 256° |
| 2026-05-07 11:31 | 38.77124 | 35.49229 | 3471 ft | 21 kts | 256° |
| 2026-05-07 11:31 | 38.77088 | 35.49042 | 3467 ft | 23 kts | 256° |
| 2026-05-07 11:31 | 38.77050 | 35.48840 | 3467 ft | 24 kts | 257° |
| 2026-05-07 11:31 | 38.77012 | 35.48635 | 3465 ft | 19 kts | 256° |
| 2026-05-07 11:32 | 38.76875 | 35.48606 | 3467 ft | 11 kts | 167° |
| 2026-05-07 11:32 | 38.76797 | 35.48629 | 3468 ft | 12 kts | 167° |
| 2026-05-07 11:32 | 38.76727 | 35.48672 | 3468 ft | 10 kts | 156° |
| 2026-05-07 11:33 | 38.76666 | 35.48690 | 3468 ft | 6 kts | 167° |
| 2026-05-07 11:33 | 38.76662 | 35.48691 | 3468 ft | 0 kts | 166° |